sensor_id;sensor_type;location;lat;lon;timestamp;pressure;altitude;pressure_sealevel;temperature;humidity
62548;BME280;48602;45.192;5.722;2023-07-31T00:01:25;99418.66;;;20.43;51.94
62548;BME280;48602;45.192;5.722;2023-07-31T00:03:51;99416.84;;;20.43;52.29
62548;BME280;48602;45.192;5.722;2023-07-31T00:06:16;99424.03;;;20.43;52.37
62548;BME280;48602;45.192;5.722;2023-07-31T00:08:42;99411.72;;;20.40;52.70
62548;BME280;48602;45.192;5.722;2023-07-31T00:11:07;99413.66;;;20.38;52.28
62548;BME280;48602;45.192;5.722;2023-07-31T00:13:32;99409.03;;;20.40;52.31
62548;BME280;48602;45.192;5.722;2023-07-31T00:15:58;99403.69;;;20.40;52.07
62548;BME280;48602;45.192;5.722;2023-07-31T00:18:24;99396.50;;;20.41;52.63
62548;BME280;48602;45.192;5.722;2023-07-31T00:20:49;99396.50;;;20.41;52.52
62548;BME280;48602;45.192;5.722;2023-07-31T00:23:15;99399.28;;;20.39;52.62
62548;BME280;48602;45.192;5.722;2023-07-31T00:25:41;99392.34;;;20.37;52.53
62548;BME280;48602;45.192;5.722;2023-07-31T00:28:07;99394.25;;;20.35;52.69
62548;BME280;48602;45.192;5.722;2023-07-31T00:30:32;99381.94;;;20.32;53.14
62548;BME280;48602;45.192;5.722;2023-07-31T00:32:57;99381.09;;;20.32;53.20
62548;BME280;48602;45.192;5.722;2023-07-31T00:35:23;99370.75;;;20.27;53.03
62548;BME280;48602;45.192;5.722;2023-07-31T00:37:48;99379.13;;;20.23;53.33
62548;BME280;48602;45.192;5.722;2023-07-31T00:40:14;99372.41;;;20.17;53.69
62548;BME280;48602;45.192;5.722;2023-07-31T00:42:39;99377.00;;;20.15;53.97
62548;BME280;48602;45.192;5.722;2023-07-31T00:45:05;99375.66;;;20.09;53.94
62548;BME280;48602;45.192;5.722;2023-07-31T00:47:30;99379.66;;;20.04;54.33
62548;BME280;48602;45.192;5.722;2023-07-31T00:49:56;99375.69;;;19.97;54.60
62548;BME280;48602;45.192;5.722;2023-07-31T00:52:22;99370.94;;;19.89;54.79
62548;BME280;48602;45.192;5.722;2023-07-31T00:54:48;99369.66;;;19.82;54.93
62548;BME280;48602;45.192;5.722;2023-07-31T00:57:14;99371.00;;;19.76;55.13
62548;BME280;48602;45.192;5.722;2023-07-31T00:59:40;99377.31;;;19.75;54.85
62548;BME280;48602;45.192;5.722;2023-07-31T01:02:05;99371.34;;;19.72;55.17
62548;BME280;48602;45.192;5.722;2023-07-31T01:04:31;99372.41;;;19.69;55.23
62548;BME280;48602;45.192;5.722;2023-07-31T01:07:31;99363.75;;;19.66;55.17
62548;BME280;48602;45.192;5.722;2023-07-31T01:10:11;99378.31;;;19.62;55.56
62548;BME280;48602;45.192;5.722;2023-07-31T01:12:38;99371.38;;;19.59;55.54
62548;BME280;48602;45.192;5.722;2023-07-31T01:15:04;99380.25;;;19.60;55.49
62548;BME280;48602;45.192;5.722;2023-07-31T01:17:30;99368.72;;;19.59;55.82
62548;BME280;48602;45.192;5.722;2023-07-31T01:20:01;99371.38;;;19.59;55.78
62548;BME280;48602;45.192;5.722;2023-07-31T01:28:03;99382.94;;;19.60;56.36
62548;BME280;48602;45.192;5.722;2023-07-31T01:30:32;99374.91;;;19.60;56.30
62548;BME280;48602;45.192;5.722;2023-07-31T01:33:03;99369.69;;;19.58;56.49
62548;BME280;48602;45.192;5.722;2023-07-31T01:35:37;99372.34;;;19.58;56.15
62548;BME280;48602;45.192;5.722;2023-07-31T01:38:03;99373.41;;;19.56;56.24
62548;BME280;48602;45.192;5.722;2023-07-31T01:40:29;99367.31;;;19.54;56.82
62548;BME280;48602;45.192;5.722;2023-07-31T01:42:54;99372.91;;;19.50;56.94
62548;BME280;48602;45.192;5.722;2023-07-31T01:45:20;99374.78;;;19.48;57.09
62548;BME280;48602;45.192;5.722;2023-07-31T01:47:45;99373.44;;;19.43;57.68
62548;BME280;48602;45.192;5.722;2023-07-31T01:50:10;99376.53;;;19.37;57.64
62548;BME280;48602;45.192;5.722;2023-07-31T01:52:36;99381.47;;;19.30;57.96
62548;BME280;48602;45.192;5.722;2023-07-31T01:55:01;99380.84;;;19.27;58.33
62548;BME280;48602;45.192;5.722;2023-07-31T01:57:27;99374.13;;;19.21;57.90
62548;BME280;48602;45.192;5.722;2023-07-31T01:59:52;99369.84;;;19.18;58.26
62548;BME280;48602;45.192;5.722;2023-07-31T02:02:19;99370.91;;;19.16;57.63
62548;BME280;48602;45.192;5.722;2023-07-31T02:04:45;99365.66;;;19.14;58.50
62548;BME280;48602;45.192;5.722;2023-07-31T02:07:10;99379.25;;;19.11;58.08
62548;BME280;48602;45.192;5.722;2023-07-31T02:09:36;99369.13;;;19.04;57.82
62548;BME280;48602;45.192;5.722;2023-07-31T02:12:01;99369.44;;;18.99;58.26
62548;BME280;48602;45.192;5.722;2023-07-31T02:14:26;99369.63;;;18.96;58.68
62548;BME280;48602;45.192;5.722;2023-07-31T02:16:52;99371.91;;;18.90;58.28
62548;BME280;48602;45.192;5.722;2023-07-31T02:19:17;99373.81;;;18.88;59.55
62548;BME280;48602;45.192;5.722;2023-07-31T02:21:42;99380.34;;;18.83;58.45
62548;BME280;48602;45.192;5.722;2023-07-31T02:24:08;99370.81;;;18.79;59.24
62548;BME280;48602;45.192;5.722;2023-07-31T02:26:34;99369.09;;;18.78;59.12
62548;BME280;48602;45.192;5.722;2023-07-31T02:28:59;99371.78;;;18.78;59.04
62548;BME280;48602;45.192;5.722;2023-07-31T02:31:24;99370.06;;;18.77;59.36
62548;BME280;48602;45.192;5.722;2023-07-31T02:33:50;99367.28;;;18.79;59.75
62548;BME280;48602;45.192;5.722;2023-07-31T02:36:15;99368.25;;;18.78;60.39
62548;BME280;48602;45.192;5.722;2023-07-31T02:38:41;99368.50;;;18.75;59.99
62548;BME280;48602;45.192;5.722;2023-07-31T02:41:06;99366.03;;;18.72;60.93
62548;BME280;48602;45.192;5.722;2023-07-31T02:43:31;99358.97;;;18.71;60.46
62548;BME280;48602;45.192;5.722;2023-07-31T02:45:57;99361.53;;;18.72;61.08
62548;BME280;48602;45.192;5.722;2023-07-31T02:48:22;99371.56;;;18.69;60.75
62548;BME280;48602;45.192;5.722;2023-07-31T02:50:48;99372.84;;;18.63;60.09
62548;BME280;48602;45.192;5.722;2023-07-31T02:53:13;99372.94;;;18.62;60.31
62548;BME280;48602;45.192;5.722;2023-07-31T02:55:39;99375.72;;;18.60;61.52
62548;BME280;48602;45.192;5.722;2023-07-31T02:58:05;99375.94;;;18.57;60.76
62548;BME280;48602;45.192;5.722;2023-07-31T03:00:30;99371.66;;;18.55;60.83
62548;BME280;48602;45.192;5.722;2023-07-31T03:02:55;99367.38;;;18.52;61.58
62548;BME280;48602;45.192;5.722;2023-07-31T03:05:21;99367.56;;;18.49;61.32
62548;BME280;48602;45.192;5.722;2023-07-31T03:07:46;99359.88;;;18.44;62.31
62548;BME280;48602;45.192;5.722;2023-07-31T03:10:11;99364.78;;;18.38;61.25
62548;BME280;48602;45.192;5.722;2023-07-31T03:12:37;99364.88;;;18.36;60.69
62548;BME280;48602;45.192;5.722;2023-07-31T03:15:03;99368.41;;;18.37;61.60
62548;BME280;48602;45.192;5.722;2023-07-31T03:17:29;99371.38;;;18.32;62.45
62548;BME280;48602;45.192;5.722;2023-07-31T03:19:54;99369.25;;;18.25;62.20
62548;BME280;48602;45.192;5.722;2023-07-31T03:22:19;99378.53;;;18.19;62.23
62548;BME280;48602;45.192;5.722;2023-07-31T03:24:45;99378.81;;;18.14;62.16
62548;BME280;48602;45.192;5.722;2023-07-31T03:27:10;99379.03;;;18.11;62.32
62548;BME280;48602;45.192;5.722;2023-07-31T03:29:35;99387.97;;;18.10;62.02
62548;BME280;48602;45.192;5.722;2023-07-31T03:32:01;99381.91;;;18.08;61.94
62548;BME280;48602;45.192;5.722;2023-07-31T03:34:26;99382.88;;;18.07;62.54
62548;BME280;48602;45.192;5.722;2023-07-31T03:36:52;99387.47;;;18.05;63.08
62548;BME280;48602;45.192;5.722;2023-07-31T03:39:18;99377.19;;;17.99;63.08
62548;BME280;48602;45.192;5.722;2023-07-31T03:41:43;99377.47;;;17.95;62.69
62548;BME280;48602;45.192;5.722;2023-07-31T03:44:08;99380.38;;;17.92;62.95
62548;BME280;48602;45.192;5.722;2023-07-31T03:46:34;99380.47;;;17.90;62.53
62548;BME280;48602;45.192;5.722;2023-07-31T03:49:01;99382.09;;;17.93;62.78
62548;BME280;48602;45.192;5.722;2023-07-31T03:51:26;99383.75;;;17.94;62.92
62548;BME280;48602;45.192;5.722;2023-07-31T03:53:51;99393.38;;;17.96;62.42
62548;BME280;48602;45.192;5.722;2023-07-31T03:56:17;99389.66;;;17.99;62.68
62548;BME280;48602;45.192;5.722;2023-07-31T03:58:42;99395.84;;;17.99;62.75
62548;BME280;48602;45.192;5.722;2023-07-31T04:01:07;99403.84;;;17.99;63.83
62548;BME280;48602;45.192;5.722;2023-07-31T04:03:33;99401.19;;;17.99;63.26
62548;BME280;48602;45.192;5.722;2023-07-31T04:05:58;99397.56;;;18.00;63.75
62548;BME280;48602;45.192;5.722;2023-07-31T04:08:24;99401.84;;;18.03;63.26
62548;BME280;48602;45.192;5.722;2023-07-31T04:10:49;99395.47;;;18.05;63.45
62548;BME280;48602;45.192;5.722;2023-07-31T04:13:15;99397.94;;;18.08;63.46
62548;BME280;48602;45.192;5.722;2023-07-31T04:15:41;99404.84;;;18.11;62.85
62548;BME280;48602;45.192;5.722;2023-07-31T04:18:06;99405.69;;;18.11;63.43
62548;BME280;48602;45.192;5.722;2023-07-31T04:20:32;99388.75;;;18.12;63.21
62548;BME280;48602;45.192;5.722;2023-07-31T04:22:57;99381.59;;;18.13;63.24
62548;BME280;48602;45.192;5.722;2023-07-31T04:25:22;99381.50;;;18.14;63.56
62548;BME280;48602;45.192;5.722;2023-07-31T04:27:48;99383.19;;;18.16;63.57
62548;BME280;48602;45.192;5.722;2023-07-31T04:30:13;99396.44;;;18.17;63.46
62548;BME280;48602;45.192;5.722;2023-07-31T04:32:39;99399.88;;;18.19;63.32
62548;BME280;48602;45.192;5.722;2023-07-31T04:35:05;99391.88;;;18.19;63.10
62548;BME280;48602;45.192;5.722;2023-07-31T04:37:30;99405.09;;;18.21;63.08
62548;BME280;48602;45.192;5.722;2023-07-31T04:39:56;99413.00;;;18.22;63.15
62548;BME280;48602;45.192;5.722;2023-07-31T04:42:21;99411.09;;;18.24;63.43
62548;BME280;48602;45.192;5.722;2023-07-31T04:44:47;99415.34;;;18.27;63.03
62548;BME280;48602;45.192;5.722;2023-07-31T04:47:12;99412.59;;;18.28;63.30
62548;BME280;48602;45.192;5.722;2023-07-31T04:49:37;99411.53;;;18.31;63.55
62548;BME280;48602;45.192;5.722;2023-07-31T04:52:03;99416.00;;;18.30;64.30
62548;BME280;48602;45.192;5.722;2023-07-31T04:54:29;99419.63;;;18.29;63.84
62548;BME280;48602;45.192;5.722;2023-07-31T04:56:54;99427.03;;;18.26;63.69
62548;BME280;48602;45.192;5.722;2023-07-31T04:59:20;99424.44;;;18.24;63.43
62548;BME280;48602;45.192;5.722;2023-07-31T05:01:45;99419.97;;;18.25;63.76
62548;BME280;48602;45.192;5.722;2023-07-31T05:04:13;99427.75;;;18.28;63.83
62548;BME280;48602;45.192;5.722;2023-07-31T05:06:39;99428.50;;;18.30;64.21
62548;BME280;48602;45.192;5.722;2023-07-31T05:09:05;99421.16;;;18.33;64.27
62548;BME280;48602;45.192;5.722;2023-07-31T05:11:30;99424.38;;;18.38;63.84
62548;BME280;48602;45.192;5.722;2023-07-31T05:13:56;99425.03;;;18.42;63.41
62548;BME280;48602;45.192;5.722;2023-07-31T05:16:21;99420.41;;;18.44;63.03
62548;BME280;48602;45.192;5.722;2023-07-31T05:18:47;99422.88;;;18.47;63.28
62548;BME280;48602;45.192;5.722;2023-07-31T05:21:12;99419.25;;;18.48;62.71
62548;BME280;48602;45.192;5.722;2023-07-31T05:23:37;99415.53;;;18.51;63.53
62548;BME280;48602;45.192;5.722;2023-07-31T05:26:04;99407.31;;;18.54;63.61
62548;BME280;48602;45.192;5.722;2023-07-31T05:28:30;99408.94;;;18.56;63.94
62548;BME280;48602;45.192;5.722;2023-07-31T05:31:00;99413.25;;;18.59;63.47
62548;BME280;48602;45.192;5.722;2023-07-31T05:33:25;99406.81;;;18.61;63.43
62548;BME280;48602;45.192;5.722;2023-07-31T05:35:51;99408.63;;;18.61;63.19
62548;BME280;48602;45.192;5.722;2023-07-31T05:38:16;99414.81;;;18.61;63.80
62548;BME280;48602;45.192;5.722;2023-07-31T05:40:42;99416.44;;;18.64;63.15
62548;BME280;48602;45.192;5.722;2023-07-31T05:43:08;99417.19;;;18.66;63.86
62548;BME280;48602;45.192;5.722;2023-07-31T05:45:34;99420.63;;;18.68;63.79
62548;BME280;48602;45.192;5.722;2023-07-31T05:48:00;99421.47;;;18.68;64.04
62548;BME280;48602;45.192;5.722;2023-07-31T05:50:25;99417.75;;;18.71;63.11
62548;BME280;48602;45.192;5.722;2023-07-31T05:52:51;99421.16;;;18.73;63.54
62548;BME280;48602;45.192;5.722;2023-07-31T05:55:17;99418.91;;;18.79;63.38
62548;BME280;48602;45.192;5.722;2023-07-31T05:57:42;99409.72;;;18.83;63.44
62548;BME280;48602;45.192;5.722;2023-07-31T06:00:11;99403.97;;;18.90;63.19
62548;BME280;48602;45.192;5.722;2023-07-31T06:02:37;99414.31;;;18.94;62.87
62548;BME280;48602;45.192;5.722;2023-07-31T06:05:04;99407.78;;;18.98;63.11
62548;BME280;48602;45.192;5.722;2023-07-31T06:07:31;99405.66;;;19.03;62.97
62548;BME280;48602;45.192;5.722;2023-07-31T06:09:56;99400.88;;;19.08;62.85
62548;BME280;48602;45.192;5.722;2023-07-31T06:12:27;99394.22;;;19.14;62.93
62548;BME280;48602;45.192;5.722;2023-07-31T06:14:52;99392.81;;;19.21;62.56
62548;BME280;48602;45.192;5.722;2023-07-31T06:17:17;99397.09;;;19.24;62.65
62548;BME280;48602;45.192;5.722;2023-07-31T06:19:43;99396.75;;;19.28;62.69
62548;BME280;48602;45.192;5.722;2023-07-31T06:22:09;99397.41;;;19.32;62.27
62548;BME280;48602;45.192;5.722;2023-07-31T06:24:34;99386.47;;;19.35;62.56
62548;BME280;48602;45.192;5.722;2023-07-31T06:26:59;99397.72;;;19.40;62.67
62548;BME280;48602;45.192;5.722;2023-07-31T06:29:25;99399.06;;;19.45;62.02
62548;BME280;48602;45.192;5.722;2023-07-31T06:31:50;99403.28;;;19.49;62.02
62548;BME280;48602;45.192;5.722;2023-07-31T06:34:16;99401.13;;;19.55;61.90
62548;BME280;48602;45.192;5.722;2023-07-31T06:36:42;99391.19;;;19.57;61.51
62548;BME280;48602;45.192;5.722;2023-07-31T06:39:07;99392.88;;;19.58;61.72
62548;BME280;48602;45.192;5.722;2023-07-31T06:41:34;99384.63;;;19.61;61.04
62548;BME280;48602;45.192;5.722;2023-07-31T06:43:59;99382.69;;;19.63;61.19
62548;BME280;48602;45.192;5.722;2023-07-31T06:46:24;99373.69;;;19.64;60.95
62548;BME280;48602;45.192;5.722;2023-07-31T06:48:50;99382.34;;;19.67;59.91
62548;BME280;48602;45.192;5.722;2023-07-31T06:51:15;99392.31;;;19.65;59.85
62548;BME280;48602;45.192;5.722;2023-07-31T06:53:41;99390.59;;;19.64;60.58
62548;BME280;48602;45.192;5.722;2023-07-31T06:56:07;99381.50;;;19.67;60.44
62548;BME280;48602;45.192;5.722;2023-07-31T06:58:32;99375.81;;;19.71;60.52
62548;BME280;48602;45.192;5.722;2023-07-31T07:00:57;99369.19;;;19.77;60.05
62548;BME280;48602;45.192;5.722;2023-07-31T07:03:23;99364.44;;;19.80;60.12
62548;BME280;48602;45.192;5.722;2023-07-31T07:05:48;99365.06;;;19.84;59.84
62548;BME280;48602;45.192;5.722;2023-07-31T07:08:13;99362.91;;;19.89;59.41
62548;BME280;48602;45.192;5.722;2023-07-31T07:10:39;99362.69;;;19.92;59.70
62548;BME280;48602;45.192;5.722;2023-07-31T07:13:08;99361.56;;;19.95;59.40
62548;BME280;48602;45.192;5.722;2023-07-31T07:15:38;99363.28;;;19.96;59.66
62548;BME280;48602;45.192;5.722;2023-07-31T07:18:03;99366.72;;;19.98;58.81
62548;BME280;48602;45.192;5.722;2023-07-31T07:20:29;99361.25;;;19.99;58.77
62548;BME280;48602;45.192;5.722;2023-07-31T07:22:54;99365.41;;;20.03;58.49
62548;BME280;48602;45.192;5.722;2023-07-31T07:25:19;99363.34;;;20.07;59.09
62548;BME280;48602;45.192;5.722;2023-07-31T07:27:45;99351.44;;;20.11;59.16
62548;BME280;48602;45.192;5.722;2023-07-31T07:30:10;99360.84;;;20.16;58.81
62548;BME280;48602;45.192;5.722;2023-07-31T07:32:36;99360.25;;;20.24;58.94
62548;BME280;48602;45.192;5.722;2023-07-31T07:35:01;99362.44;;;20.30;58.48
62548;BME280;48602;45.192;5.722;2023-07-31T07:37:26;99361.06;;;20.37;58.25
62548;BME280;48602;45.192;5.722;2023-07-31T07:39:52;99359.00;;;20.41;57.66
62548;BME280;48602;45.192;5.722;2023-07-31T07:42:17;99364.13;;;20.44;57.45
62548;BME280;48602;45.192;5.722;2023-07-31T07:44:43;99361.56;;;20.42;57.48
62548;BME280;48602;45.192;5.722;2023-07-31T07:47:08;99364.00;;;20.45;57.24
62548;BME280;48602;45.192;5.722;2023-07-31T07:49:34;99360.00;;;20.51;57.13
62548;BME280;48602;45.192;5.722;2023-07-31T07:52:00;99358.78;;;20.55;56.79
62548;BME280;48602;45.192;5.722;2023-07-31T07:54:25;99344.19;;;20.59;56.13
62548;BME280;48602;45.192;5.722;2023-07-31T07:56:51;99345.41;;;20.66;56.47
62548;BME280;48602;45.192;5.722;2023-07-31T07:59:16;99345.78;;;20.73;56.78
62548;BME280;48602;45.192;5.722;2023-07-31T08:01:42;99340.66;;;20.81;56.55
62548;BME280;48602;45.192;5.722;2023-07-31T08:04:07;99337.28;;;20.90;55.64
62548;BME280;48602;45.192;5.722;2023-07-31T08:06:32;99325.19;;;20.96;55.79
62548;BME280;48602;45.192;5.722;2023-07-31T08:08:59;99327.41;;;21.02;55.80
62548;BME280;48602;45.192;5.722;2023-07-31T08:11:24;99329.63;;;21.08;55.58
62548;BME280;48602;45.192;5.722;2023-07-31T08:13:49;99330.94;;;21.13;55.57
62548;BME280;48602;45.192;5.722;2023-07-31T08:16:15;99328.75;;;21.18;55.51
62548;BME280;48602;45.192;5.722;2023-07-31T08:18:41;99326.59;;;21.23;55.01
62548;BME280;48602;45.192;5.722;2023-07-31T08:21:08;99316.31;;;21.29;54.94
62548;BME280;48602;45.192;5.722;2023-07-31T08:23:33;99323.25;;;21.31;55.14
62548;BME280;48602;45.192;5.722;2023-07-31T08:25:59;99317.66;;;21.34;54.70
62548;BME280;48602;45.192;5.722;2023-07-31T08:28:25;99319.97;;;21.39;54.53
62548;BME280;48602;45.192;5.722;2023-07-31T08:30:50;99314.38;;;21.42;54.38
62548;BME280;48602;45.192;5.722;2023-07-31T08:33:16;99322.41;;;21.42;53.81
62548;BME280;48602;45.192;5.722;2023-07-31T08:35:41;99310.84;;;21.41;54.25
62548;BME280;48602;45.192;5.722;2023-07-31T08:38:06;99310.84;;;21.41;54.00
62548;BME280;48602;45.192;5.722;2023-07-31T08:40:36;99305.22;;;21.44;53.66
62548;BME280;48602;45.192;5.722;2023-07-31T08:43:01;99312.00;;;21.48;53.08
62548;BME280;48602;45.192;5.722;2023-07-31T08:45:28;99302.75;;;21.52;53.16
62548;BME280;48602;45.192;5.722;2023-07-31T08:47:55;99309.56;;;21.56;52.47
62548;BME280;48602;45.192;5.722;2023-07-31T08:50:21;99306.03;;;21.56;51.87
62548;BME280;48602;45.192;5.722;2023-07-31T08:52:49;99302.38;;;21.57;51.52
62548;BME280;48602;45.192;5.722;2023-07-31T08:55:15;99300.41;;;21.59;51.46
62548;BME280;48602;45.192;5.722;2023-07-31T08:57:41;99318.22;;;21.60;51.62
62548;BME280;48602;45.192;5.722;2023-07-31T09:00:08;99307.38;;;21.62;51.07
62548;BME280;48602;45.192;5.722;2023-07-31T09:02:38;99302.69;;;21.64;50.83
62548;BME280;48602;45.192;5.722;2023-07-31T09:05:07;99294.28;;;21.68;50.84
62548;BME280;48602;45.192;5.722;2023-07-31T09:07:34;99285.00;;;21.72;50.59
62548;BME280;48602;45.192;5.722;2023-07-31T09:10:00;99280.13;;;21.77;50.50
62548;BME280;48602;45.192;5.722;2023-07-31T09:12:25;99283.38;;;21.81;50.57
62548;BME280;48602;45.192;5.722;2023-07-31T09:14:51;99286.41;;;21.87;50.20
62548;BME280;48602;45.192;5.722;2023-07-31T09:17:37;99278.69;;;21.94;50.13
62548;BME280;48602;45.192;5.722;2023-07-31T09:20:15;99273.66;;;22.01;49.95
62548;BME280;48602;45.192;5.722;2023-07-31T09:22:41;99272.31;;;22.06;50.17
62548;BME280;48602;45.192;5.722;2023-07-31T09:25:18;99272.63;;;22.13;50.21
62548;BME280;48602;45.192;5.722;2023-07-31T09:27:50;99263.34;;;22.17;49.77
62548;BME280;48602;45.192;5.722;2023-07-31T09:30:17;99262.09;;;22.21;49.52
62548;BME280;48602;45.192;5.722;2023-07-31T09:32:47;99262.69;;;22.24;49.64
62548;BME280;48602;45.192;5.722;2023-07-31T09:35:27;99254.22;;;22.29;49.36
62548;BME280;48602;45.192;5.722;2023-07-31T09:37:55;99258.09;;;22.36;49.67
62548;BME280;48602;45.192;5.722;2023-07-31T09:43:03;99246.97;;;22.50;48.82
62548;BME280;48602;45.192;5.722;2023-07-31T09:45:29;99250.72;;;22.59;48.59
62548;BME280;48602;45.192;5.722;2023-07-31T09:47:56;99248.31;;;22.66;48.60
62548;BME280;48602;45.192;5.722;2023-07-31T09:50:23;99247.09;;;22.70;48.92
62548;BME280;48602;45.192;5.722;2023-07-31T09:52:50;99242.16;;;22.75;48.16
62548;BME280;48602;45.192;5.722;2023-07-31T09:55:16;99230.19;;;22.79;48.35
62548;BME280;48602;45.192;5.722;2023-07-31T09:57:43;99227.91;;;22.84;48.13
62548;BME280;48602;45.192;5.722;2023-07-31T10:00:11;99225.41;;;22.92;48.41
62548;BME280;48602;45.192;5.722;2023-07-31T10:02:38;99218.34;;;23.01;48.15
62548;BME280;48602;45.192;5.722;2023-07-31T10:05:05;99220.78;;;23.13;47.77
62548;BME280;48602;45.192;5.722;2023-07-31T10:07:35;99212.88;;;23.21;47.94
62548;BME280;48602;45.192;5.722;2023-07-31T10:10:02;99213.31;;;23.26;47.66
62548;BME280;48602;45.192;5.722;2023-07-31T10:12:29;99202.97;;;23.31;46.34
62548;BME280;48602;45.192;5.722;2023-07-31T10:14:59;99204.53;;;23.34;46.68
62548;BME280;48602;45.192;5.722;2023-07-31T10:17:25;99204.97;;;23.39;46.65
62548;BME280;48602;45.192;5.722;2023-07-31T10:19:51;99195.50;;;23.45;46.85
62548;BME280;48602;45.192;5.722;2023-07-31T10:22:18;99195.81;;;23.51;46.59
62548;BME280;48602;45.192;5.722;2023-07-31T10:24:45;99200.75;;;23.56;45.96
62548;BME280;48602;45.192;5.722;2023-07-31T10:27:10;99192.56;;;23.57;46.53
62548;BME280;48602;45.192;5.722;2023-07-31T10:29:38;99179.94;;;23.58;45.68
62548;BME280;48602;45.192;5.722;2023-07-31T10:32:05;99170.16;;;23.57;45.72
62548;BME280;48602;45.192;5.722;2023-07-31T10:34:39;99176.66;;;23.64;45.83
62548;BME280;48602;45.192;5.722;2023-07-31T10:37:27;99167.47;;;23.66;45.12
62548;BME280;48602;45.192;5.722;2023-07-31T10:40:15;99171.72;;;23.69;45.59
62548;BME280;48602;45.192;5.722;2023-07-31T10:42:51;99163.34;;;23.72;44.92
62548;BME280;48602;45.192;5.722;2023-07-31T10:45:38;99154.72;;;23.78;45.73
62548;BME280;48602;45.192;5.722;2023-07-31T10:48:12;99153.97;;;23.86;45.22
62548;BME280;48602;45.192;5.722;2023-07-31T10:50:45;99158.09;;;23.90;45.08
62548;BME280;48602;45.192;5.722;2023-07-31T10:53:22;99151.41;;;23.94;45.02
62548;BME280;48602;45.192;5.722;2023-07-31T10:55:49;99143.03;;;23.97;44.59
62548;BME280;48602;45.192;5.722;2023-07-31T10:58:19;99139.91;;;24.01;45.37
62548;BME280;48602;45.192;5.722;2023-07-31T11:00:45;99135.50;;;24.10;44.62
62548;BME280;48602;45.192;5.722;2023-07-31T11:03:16;99135.44;;;24.20;44.36
62548;BME280;48602;45.192;5.722;2023-07-31T11:05:49;99128.53;;;24.27;44.57
62548;BME280;48602;45.192;5.722;2023-07-31T11:08:22;99128.63;;;24.35;44.81
62548;BME280;48602;45.192;5.722;2023-07-31T11:11:10;99120.09;;;24.40;43.20
62548;BME280;48602;45.192;5.722;2023-07-31T11:16:16;99117.47;;;24.48;43.60
62548;BME280;48602;45.192;5.722;2023-07-31T11:18:46;99114.50;;;24.51;44.17
62548;BME280;48602;45.192;5.722;2023-07-31T11:21:22;99114.19;;;24.54;43.60
62548;BME280;48602;45.192;5.722;2023-07-31T11:23:50;99109.50;;;24.56;43.01
62548;BME280;48602;45.192;5.722;2023-07-31T11:26:16;99102.69;;;24.61;43.42
62548;BME280;48602;45.192;5.722;2023-07-31T11:28:42;99097.34;;;24.69;43.04
62548;BME280;48602;45.192;5.722;2023-07-31T11:31:10;99096.28;;;24.80;43.51
62548;BME280;48602;45.192;5.722;2023-07-31T11:33:36;99093.53;;;24.90;42.09
62548;BME280;48602;45.192;5.722;2023-07-31T11:36:01;99093.13;;;24.94;41.77
62548;BME280;48602;45.192;5.722;2023-07-31T11:38:29;99085.03;;;24.94;41.75
62548;BME280;48602;45.192;5.722;2023-07-31T11:41:05;99082.69;;;24.99;41.55
62548;BME280;48602;45.192;5.722;2023-07-31T11:43:33;99083.09;;;25.04;41.17
62548;BME280;48602;45.192;5.722;2023-07-31T11:46:00;99075.09;;;25.13;41.58
62548;BME280;48602;45.192;5.722;2023-07-31T11:48:32;99064.50;;;25.19;41.53
62548;BME280;48602;45.192;5.722;2023-07-31T11:51:03;99056.34;;;25.29;41.80
62548;BME280;48602;45.192;5.722;2023-07-31T11:53:38;99055.22;;;25.39;42.51
62548;BME280;48602;45.192;5.722;2023-07-31T11:56:07;99053.44;;;25.48;42.09
62548;BME280;48602;45.192;5.722;2023-07-31T11:58:35;99048.56;;;25.52;41.89
62548;BME280;48602;45.192;5.722;2023-07-31T12:01:02;99051.34;;;25.60;41.38
62548;BME280;48602;45.192;5.722;2023-07-31T12:03:28;99045.47;;;25.64;41.80
62548;BME280;48602;45.192;5.722;2023-07-31T12:05:54;99036.91;;;25.69;41.55
62548;BME280;48602;45.192;5.722;2023-07-31T12:08:23;99030.88;;;25.75;40.38
62548;BME280;48602;45.192;5.722;2023-07-31T12:10:53;99026.50;;;25.82;41.17
62548;BME280;48602;45.192;5.722;2023-07-31T12:13:24;99024.19;;;25.87;41.27
62548;BME280;48602;45.192;5.722;2023-07-31T12:15:57;99027.25;;;25.92;39.63
62548;BME280;48602;45.192;5.722;2023-07-31T12:18:25;99015.28;;;25.95;40.67
62548;BME280;48602;45.192;5.722;2023-07-31T12:23:28;99008.75;;;26.05;40.22
62548;BME280;48602;45.192;5.722;2023-07-31T12:28:37;99000.47;;;26.15;39.61
62548;BME280;48602;45.192;5.722;2023-07-31T12:31:04;99002.88;;;26.18;39.68
62548;BME280;48602;45.192;5.722;2023-07-31T12:33:34;98998.31;;;26.19;40.56
62548;BME280;48602;45.192;5.722;2023-07-31T12:36:02;98994.28;;;26.23;40.96
62548;BME280;48602;45.192;5.722;2023-07-31T12:38:29;98992.47;;;26.31;41.21
62548;BME280;48602;45.192;5.722;2023-07-31T12:40:54;98987.78;;;26.41;40.18
62548;BME280;48602;45.192;5.722;2023-07-31T12:43:20;98982.91;;;26.45;40.63
62548;BME280;48602;45.192;5.722;2023-07-31T12:45:45;98982.72;;;26.47;40.35
62548;BME280;48602;45.192;5.722;2023-07-31T12:48:12;98968.69;;;26.51;40.41
62548;BME280;48602;45.192;5.722;2023-07-31T12:50:38;98969.56;;;26.60;40.43
62548;BME280;48602;45.192;5.722;2023-07-31T12:53:03;98965.00;;;26.68;39.87
62548;BME280;48602;45.192;5.722;2023-07-31T12:55:29;98957.91;;;26.75;40.47
62548;BME280;48602;45.192;5.722;2023-07-31T12:57:55;98957.22;;;26.82;40.00
62548;BME280;48602;45.192;5.722;2023-07-31T13:00:21;98945.91;;;26.86;40.46
62548;BME280;48602;45.192;5.722;2023-07-31T13:02:48;98948.28;;;26.89;39.73
62548;BME280;48602;45.192;5.722;2023-07-31T13:05:13;98941.53;;;26.93;39.69
62548;BME280;48602;45.192;5.722;2023-07-31T13:07:39;98949.34;;;26.96;38.88
62548;BME280;48602;45.192;5.722;2023-07-31T13:10:06;98937.50;;;26.97;38.93
62548;BME280;48602;45.192;5.722;2023-07-31T13:12:32;98931.38;;;27.03;39.27
62548;BME280;48602;45.192;5.722;2023-07-31T13:14:57;98922.59;;;27.09;38.90